Time;durP1;ratioP1;P1;durP2;ratioP2;P2;SDS_P1;SDS_P2;PMS_P1;PMS_P2;Temp;Humidity;BMP_temperature;BMP_pressure;BME280_temperature;BME280_humidity;BME280_pressure;Samples;Min_cycle;Max_cycle;Signal;HPM_P1;HPM_P2
2023/08/10 00:03:43;;;;;;;1.37;1.20;;;13.00;99.90;;;;;;1975788;71;27531;-87
2023/08/10 00:06:34;;;;;;;4.30;1.30;;;12.90;99.90;;;;;;2026269;70;25653;-88
2023/08/10 00:09:23;;;;;;;2.00;1.20;;;12.90;99.90;;;;;;2024807;70;25153;-88
2023/08/10 00:12:12;;;;;;;2.50;1.40;;;12.90;99.90;;;;;;2010852;70;25264;-88
2023/08/10 00:15:03;;;;;;;1.20;1.20;;;13.00;99.90;;;;;;2027128;70;25715;-88
2023/08/10 00:17:52;;;;;;;3.43;1.33;;;13.00;99.90;;;;;;2034042;70;25202;-88
2023/08/10 00:20:41;;;;;;;10.73;1.30;;;13.10;99.90;;;;;;2014005;70;25679;-88
2023/08/10 00:23:30;;;;;;;1.60;1.50;;;13.10;99.90;;;;;;2028066;70;25151;-88
2023/08/10 00:26:19;;;;;;;3.53;1.40;;;13.00;99.90;;;;;;2010375;70;25478;-88
2023/08/10 00:29:08;;;;;;;3.07;1.53;;;12.90;99.90;;;;;;2013740;70;25220;-88
2023/08/10 00:31:56;;;;;;;1.50;1.50;;;12.90;99.90;;;;;;2002038;70;25351;-88
2023/08/10 00:34:45;;;;;;;4.80;1.40;;;12.90;99.90;;;;;;2028686;70;25204;-88
2023/08/10 00:37:40;;;;;;;1.83;1.47;;;12.90;99.90;;;;;;1986699;72;25245;-88
2023/08/10 00:40:29;;;;;;;1.70;1.60;;;12.80;99.90;;;;;;1939441;72;25203;-88
2023/08/10 00:43:18;;;;;;;1.80;1.60;;;12.90;99.90;;;;;;1867537;75;25338;-88
2023/08/10 00:46:08;;;;;;;3.77;1.47;;;12.80;99.90;;;;;;1939190;73;25191;-88
2023/08/10 00:48:57;;;;;;;1.60;1.50;;;12.80;99.90;;;;;;1918489;74;25261;-88
2023/08/10 00:51:46;;;;;;;1.57;1.47;;;12.80;99.90;;;;;;1929384;73;25197;-88
2023/08/10 00:54:36;;;;;;;1.80;1.60;;;12.80;99.90;;;;;;1945610;73;25214;-88
2023/08/10 00:57:25;;;;;;;2.43;1.67;;;12.90;99.90;;;;;;1947055;73;25263;-89
2023/08/10 01:00:16;;;;;;;1.53;1.43;;;12.90;99.90;;;;;;1934713;73;25295;-88
2023/08/10 01:03:06;;;;;;;1.70;1.60;;;12.90;99.90;;;;;;1947576;73;25240;-88
2023/08/10 01:05:59;;;;;;;3.83;1.50;;;12.90;99.90;;;;;;1962755;72;25698;-88
2023/08/10 01:11:41;;;;;;;3.87;1.90;;;12.80;99.90;;;;;;1946049;72;26853;-88
2023/08/10 01:14:34;;;;;;;3.10;1.40;;;12.80;99.90;;;;;;1920056;73;25719;-87
2023/08/10 01:24:01;;;;;;;3.30;1.53;;;12.90;99.90;;;;;;1938517;72;27031;-88
2023/08/10 01:26:55;;;;;;;1.70;1.60;;;12.90;99.90;;;;;;1914288;74;25331;-88
2023/08/10 01:29:44;;;;;;;1.73;1.60;;;12.90;99.90;;;;;;1915294;74;26445;-88
2023/08/10 01:32:36;;;;;;;1.73;1.63;;;12.90;99.90;;;;;;1913476;74;25303;-88
2023/08/10 01:38:11;;;;;;;3.23;1.33;;;12.80;99.90;;;;;;1943298;72;27028;-87
2023/08/10 01:46:35;;;;;;;3.90;1.43;;;12.70;99.90;;;;;;1945110;72;28152;-87
2023/08/10 01:49:26;;;;;;;2.80;1.60;;;12.80;99.90;;;;;;1923184;73;25192;-87
2023/08/10 01:52:16;;;;;;;3.13;1.50;;;12.70;99.90;;;;;;1918595;73;25838;-87
2023/08/10 01:55:07;;;;;;;1.77;1.63;;;12.80;99.90;;;;;;1919017;73;25279;-87
2023/08/10 01:57:58;;;;;;;5.63;1.93;;;12.80;99.90;;;;;;1942453;73;25870;-87
2023/08/10 02:00:47;;;;;;;1.77;1.67;;;12.90;99.90;;;;;;1937225;73;25634;-87
2023/08/10 02:03:36;;;;;;;4.50;1.50;;;12.90;99.90;;;;;;1932530;73;25238;-87
2023/08/10 02:06:25;;;;;;;1.93;1.40;;;12.80;99.90;;;;;;1938671;73;25836;-87
2023/08/10 02:09:14;;;;;;;1.73;1.60;;;12.80;99.90;;;;;;1931859;73;25206;-87
2023/08/10 02:12:05;;;;;;;7.13;2.40;;;12.90;99.90;;;;;;1920615;73;25184;-87
2023/08/10 02:14:58;;;;;;;1.53;1.43;;;12.90;99.90;;;;;;1926678;73;25251;-87
2023/08/10 02:31:37;;;;;;;4.17;2.13;;;12.80;99.90;;;;;;1860479;75;26330;-87
2023/08/10 02:37:39;;;;;;;4.73;1.33;;;13.00;99.90;;;;;;1974460;71;26259;-87
2023/08/10 02:40:28;;;;;;;3.23;1.47;;;13.10;99.90;;;;;;2019064;70;25144;-87
2023/08/10 02:43:16;;;;;;;4.97;1.50;;;13.00;99.90;;;;;;1984818;72;25228;-87
2023/08/10 02:46:05;;;;;;;2.10;1.57;;;13.10;99.90;;;;;;1979292;72;25247;-87
2023/08/10 02:48:55;;;;;;;6.13;1.70;;;13.10;99.90;;;;;;1992587;72;25288;-87
2023/08/10 02:51:43;;;;;;;1.50;1.40;;;13.00;99.90;;;;;;1983071;72;26611;-87
2023/08/10 02:54:32;;;;;;;4.63;1.50;;;13.00;99.90;;;;;;1972535;72;25642;-87
2023/08/10 02:57:24;;;;;;;5.20;1.37;;;13.00;99.90;;;;;;1970418;72;25228;-87
2023/08/10 03:00:14;;;;;;;1.73;1.40;;;12.90;99.90;;;;;;1981405;72;25151;-87
2023/08/10 03:03:04;;;;;;;2.93;1.40;;;12.90;99.90;;;;;;1977873;72;25148;-87
2023/08/10 03:05:58;;;;;;;1.27;1.27;;;12.90;99.90;;;;;;1986839;72;25247;-87
2023/08/10 03:08:46;;;;;;;3.20;1.23;;;13.00;99.90;;;;;;1980579;72;25238;-87
2023/08/10 03:11:46;;;;;;;1.30;1.20;;;13.00;99.90;;;;;;1982296;70;25190;-87
2023/08/10 03:14:35;;;;;;;1.30;1.30;;;13.00;99.90;;;;;;1994289;70;25637;-87
2023/08/10 03:21:13;;;;;;;2.70;1.13;;;13.00;99.90;;;;;;2002586;71;26385;-87
2023/08/10 03:27:04;;;;;;;10.90;1.40;;;12.90;99.90;;;;;;1885024;74;27237;-88
2023/08/10 03:29:53;;;;;;;2.57;1.07;;;13.00;99.90;;;;;;1841823;77;25236;-88
2023/08/10 03:36:03;;;;;;;2.20;1.20;;;13.10;99.90;;;;;;1963012;71;26152;-87
2023/08/10 04:10:13;;;;;;;4.83;1.20;;;13.00;99.90;;;;;;1937571;72;27099;-88
2023/08/10 04:26:10;;;;;;;1.80;0.90;;;13.10;99.90;;;;;;1865247;76;27184;-87
2023/08/10 04:29:00;;;;;;;1.33;1.10;;;12.90;99.90;;;;;;1827849;78;25256;-87
2023/08/10 04:31:49;;;;;;;1.33;1.00;;;12.90;99.90;;;;;;1834856;78;25651;-87
2023/08/10 04:37:27;;;;;;;0.97;0.97;;;13.00;99.90;;;;;;1988708;71;26975;-87
2023/08/10 04:40:16;;;;;;;3.77;1.10;;;13.10;99.90;;;;;;1916648;73;25158;-87
2023/08/10 04:43:05;;;;;;;3.60;1.20;;;13.10;99.90;;;;;;1951848;72;25714;-87
2023/08/10 04:45:54;;;;;;;1.43;1.00;;;13.20;99.90;;;;;;1953408;72;25298;-87
2023/08/10 04:48:43;;;;;;;2.20;1.10;;;13.20;99.90;;;;;;1961540;72;25195;-88
2023/08/10 04:51:32;;;;;;;1.47;0.90;;;13.30;99.90;;;;;;1952327;72;25736;-87
2023/08/10 04:54:20;;;;;;;0.90;0.90;;;13.40;99.90;;;;;;1959463;72;25233;-87
2023/08/10 05:00:53;;;;;;;2.57;1.17;;;13.40;99.90;;;;;;2009929;70;27046;-87
2023/08/10 05:03:42;;;;;;;7.13;1.00;;;13.40;99.90;;;;;;1990753;70;25294;-87
2023/08/10 05:06:31;;;;;;;3.07;1.10;;;13.50;99.90;;;;;;1999458;71;25216;-87
2023/08/10 05:09:19;;;;;;;4.30;1.00;;;13.50;99.90;;;;;;1977359;71;25215;-87
2023/08/10 05:12:10;;;;;;;0.87;0.87;;;13.50;99.90;;;;;;1997207;71;25172;-87
2023/08/10 05:17:51;;;;;;;3.20;1.00;;;13.30;99.90;;;;;;1950215;72;27631;-87
2023/08/10 05:23:26;;;;;;;1.10;1.10;;;13.50;99.90;;;;;;1936489;72;27077;-87
2023/08/10 05:26:15;;;;;;;2.07;1.20;;;13.60;99.90;;;;;;1904373;74;25276;-87
2023/08/10 05:29:03;;;;;;;1.77;1.10;;;13.60;99.90;;;;;;1911306;74;25207;-87
2023/08/10 05:31:52;;;;;;;0.90;0.90;;;13.70;99.90;;;;;;1885580;74;25217;-87
2023/08/10 05:34:40;;;;;;;1.70;0.80;;;13.70;99.90;;;;;;1888222;74;25268;-87
2023/08/10 05:37:30;;;;;;;2.80;1.10;;;13.80;99.90;;;;;;1901083;74;25203;-87
2023/08/10 05:40:18;;;;;;;3.73;1.10;;;13.80;99.90;;;;;;1894220;74;25347;-87
2023/08/10 05:43:07;;;;;;;1.00;0.90;;;14.00;99.90;;;;;;1922896;73;25243;-87
2023/08/10 05:45:55;;;;;;;1.20;0.87;;;14.10;99.90;;;;;;1923212;73;26535;-88
2023/08/10 05:52:29;;;;;;;1.40;1.13;;;13.90;99.90;;;;;;1981284;71;26973;-87
2023/08/10 05:55:18;;;;;;;6.60;1.30;;;14.20;99.90;;;;;;2019563;70;25601;-87
2023/08/10 05:58:07;;;;;;;1.27;1.00;;;14.20;99.90;;;;;;2013583;69;25587;-87
2023/08/10 06:00:57;;;;;;;1.33;0.93;;;14.40;99.90;;;;;;2014152;70;25623;-87
2023/08/10 06:06:33;;;;;;;0.90;0.90;;;14.60;99.90;;;;;;1944105;72;26888;-87
2023/08/10 06:09:22;;;;;;;0.90;0.90;;;14.70;99.90;;;;;;1922899;73;25775;-87
2023/08/10 06:12:12;;;;;;;3.00;0.80;;;14.80;99.90;;;;;;1939440;73;25252;-88
2023/08/10 06:17:42;;;;;;;1.40;1.20;;;15.10;99.90;;;;;;1921697;72;27745;-87
2023/08/10 06:20:32;;;;;;;1.57;0.87;;;14.90;99.90;;;;;;1886472;74;25219;-87
2023/08/10 06:23:22;;;;;;;3.37;0.90;;;14.90;99.90;;;;;;1916611;74;25223;-87
2023/08/10 06:26:12;;;;;;;1.53;0.80;;;15.30;99.90;;;;;;1889991;74;25632;-87
2023/08/10 06:29:02;;;;;;;1.13;0.90;;;15.70;99.90;;;;;;1901695;74;25679;-87
2023/08/10 06:31:53;;;;;;;5.83;0.93;;;16.00;99.90;;;;;;1906163;74;25170;-87
2023/08/10 06:34:42;;;;;;;1.07;0.93;;;15.90;99.90;;;;;;1902984;74;25257;-88
2023/08/10 06:37:32;;;;;;;4.20;0.80;;;15.70;99.90;;;;;;1891927;74;25289;-87
2023/08/10 06:40:22;;;;;;;1.20;0.90;;;15.80;99.90;;;;;;1906167;75;25706;-87
2023/08/10 06:46:56;;;;;;;0.80;0.80;;;15.50;99.90;;;;;;1981494;71;27611;-87
2023/08/10 06:49:44;;;;;;;0.80;0.80;;;15.70;99.90;;;;;;2001189;70;25614;-87
2023/08/10 06:52:33;;;;;;;0.93;0.70;;;15.90;99.90;;;;;;2027785;70;25163;-87
2023/08/10 06:55:22;;;;;;;1.33;0.90;;;16.10;99.90;;;;;;2003588;70;25169;-88
2023/08/10 06:58:12;;;;;;;2.27;0.70;;;16.40;99.90;;;;;;2011171;70;25838;-88
2023/08/10 07:01:02;;;;;;;0.80;0.80;;;16.50;99.90;;;;;;1998683;70;25183;-87
2023/08/10 07:03:50;;;;;;;2.77;1.07;;;16.50;99.90;;;;;;2006466;70;25223;-87
2023/08/10 07:06:39;;;;;;;2.43;0.87;;;16.50;99.90;;;;;;2019422;70;25690;-87
2023/08/10 07:09:28;;;;;;;3.93;0.80;;;16.60;99.90;;;;;;2007547;70;25191;-87
2023/08/10 07:12:18;;;;;;;1.80;0.57;;;16.50;99.90;;;;;;2005933;70;25757;-87
2023/08/10 07:15:09;;;;;;;2.37;0.53;;;16.70;99.90;;;;;;2022903;70;25791;-87
2023/08/10 07:20:42;;;;;;;3.23;0.70;;;17.10;99.90;;;;;;1931229;72;26971;-87
2023/08/10 07:23:31;;;;;;;0.53;0.53;;;16.80;99.90;;;;;;1907346;74;25247;-87
2023/08/10 07:26:21;;;;;;;0.57;0.57;;;16.40;99.90;;;;;;1908174;74;25218;-87
2023/08/10 07:29:10;;;;;;;0.73;0.60;;;16.30;99.90;;;;;;1909130;75;25735;-87
2023/08/10 07:32:00;;;;;;;4.33;1.03;;;16.10;99.90;;;;;;1900377;75;25256;-87
2023/08/10 07:34:49;;;;;;;0.73;0.73;;;16.20;99.90;;;;;;1914455;73;25209;-87
2023/08/10 07:37:40;;;;;;;2.73;0.90;;;16.10;99.90;;;;;;1899236;74;25828;-87
2023/08/10 07:40:28;;;;;;;0.87;0.67;;;16.30;99.90;;;;;;1909303;74;25265;-88
2023/08/10 07:43:17;;;;;;;1.23;0.80;;;16.70;99.90;;;;;;1881157;75;25273;-88
2023/08/10 07:46:06;;;;;;;0.70;0.70;;;17.10;99.90;;;;;;1879131;75;25648;-88
2023/08/10 07:48:55;;;;;;;1.90;0.60;;;17.10;99.90;;;;;;1862989;75;25312;-88
2023/08/10 07:51:47;;;;;;;0.60;0.60;;;16.70;99.90;;;;;;1870002;76;25630;-88
2023/08/10 08:08:01;;;;;;;0.97;0.70;;;15.90;99.90;;;;;;2023881;69;26655;-88
2023/08/10 08:10:50;;;;;;;0.60;0.60;;;17.00;99.90;;;;;;1982806;70;25288;-88
2023/08/10 08:13:39;;;;;;;0.60;0.60;;;16.70;99.90;;;;;;2004817;70;25148;-88
2023/08/10 08:16:28;;;;;;;0.60;0.60;;;16.60;99.90;;;;;;1975110;72;25675;-87
2023/08/10 08:19:18;;;;;;;0.87;0.80;;;16.40;99.90;;;;;;1973366;70;25163;-87
2023/08/10 08:22:06;;;;;;;2.10;0.70;;;16.40;99.90;;;;;;2008024;70;25697;-87
2023/08/10 08:24:56;;;;;;;0.70;0.70;;;16.70;99.90;;;;;;1997321;70;25250;-88
2023/08/10 08:30:30;;;;;;;0.70;0.70;;;17.40;99.90;;;;;;1958284;72;27076;-88
2023/08/10 08:33:22;;;;;;;3.70;0.70;;;17.10;99.90;;;;;;1922299;73;25249;-88
2023/08/10 08:38:53;;;;;;;0.70;0.70;;;16.40;99.90;;;;;;1940679;72;27029;-88
2023/08/10 08:41:46;;;;;;;1.17;0.80;;;16.20;99.90;;;;;;1895724;75;25248;-88
2023/08/10 08:44:35;;;;;;;1.33;0.70;;;16.10;99.90;;;;;;1831065;78;25408;-88
2023/08/10 08:47:24;;;;;;;1.77;0.80;;;15.90;99.90;;;;;;1904188;75;25277;-88
2023/08/10 08:50:16;;;;;;;1.90;0.73;;;15.90;99.90;;;;;;1890851;75;25243;-88
2023/08/10 08:53:10;;;;;;;1.57;0.70;;;15.90;99.90;;;;;;1895575;75;25311;-88
2023/08/10 08:56:00;;;;;;;1.50;0.70;;;15.80;99.90;;;;;;1898811;75;25234;-88
2023/08/10 08:58:49;;;;;;;1.47;0.60;;;15.90;99.90;;;;;;1895011;75;25700;-88
2023/08/10 09:01:40;;;;;;;0.80;0.80;;;16.10;99.90;;;;;;1895841;74;25216;-88
2023/08/10 09:04:29;;;;;;;1.70;0.50;;;16.80;99.90;;;;;;1884240;75;25620;-88
2023/08/10 09:07:21;;;;;;;1.80;0.80;;;17.30;99.90;;;;;;1873947;75;25266;-88
2023/08/10 09:10:14;;;;;;;2.43;0.80;;;17.80;99.90;;;;;;1878743;75;25185;-88
2023/08/10 09:13:14;;;;;;;2.53;0.70;;;18.00;99.90;;;;;;1893888;75;25224;-88
2023/08/10 09:16:11;;;;;;;0.67;0.50;;;18.10;99.90;;;;;;1903732;75;25272;-88
2023/08/10 09:19:02;;;;;;;0.93;0.70;;;17.90;99.90;;;;;;1905740;75;25691;-87
2023/08/10 09:24:47;;;;;;;4.07;0.70;;;17.00;99.90;;;;;;1940921;72;27083;-87
2023/08/10 09:27:36;;;;;;;0.97;0.80;;;17.00;99.90;;;;;;1931650;73;25233;-88
2023/08/10 09:33:07;;;;;;;0.73;0.70;;;16.80;99.90;;;;;;1937494;72;27433;-88
2023/08/10 09:38:46;;;;;;;0.70;0.70;;;16.20;99.90;;;;;;1930116;72;27450;-88
2023/08/10 09:41:37;;;;;;;0.70;0.70;;;16.20;99.90;;;;;;1932922;72;25338;-88
2023/08/10 09:44:26;;;;;;;0.70;0.67;;;16.20;99.90;;;;;;1914958;73;25776;-88
2023/08/10 09:47:16;;;;;;;1.23;0.80;;;16.30;99.90;;;;;;1916540;73;25670;-88
2023/08/10 09:50:09;;;;;;;2.47;0.70;;;16.30;99.90;;;;;;1876894;74;25219;-88
2023/08/10 09:52:58;;;;;;;0.70;0.70;;;16.50;99.90;;;;;;1870651;75;25232;-88
2023/08/10 09:55:47;;;;;;;1.60;0.80;;;16.60;99.90;;;;;;1865396;75;25257;-87
2023/08/10 09:58:37;;;;;;;1.67;0.80;;;16.80;99.90;;;;;;1874175;75;25624;-88
2023/08/10 10:14:55;;;;;;;2.17;0.60;;;17.80;99.90;;;;;;1908109;74;27059;-88
2023/08/10 10:17:44;;;;;;;0.50;0.50;;;19.40;99.90;;;;;;1854223;75;25762;-87
2023/08/10 10:20:34;;;;;;;0.60;0.60;;;19.20;99.90;;;;;;1864989;76;25260;-88
2023/08/10 10:26:35;;;;;;;0.90;0.90;;;18.70;99.90;;;;;;1949035;72;26913;-88
2023/08/10 10:29:26;;;;;;;0.70;0.70;;;18.00;99.90;;;;;;1930707;73;26139;-88
2023/08/10 10:32:18;;;;;;;0.60;0.60;;;17.70;99.90;;;;;;1922043;73;26670;-88
2023/08/10 10:35:09;;;;;;;0.60;0.60;;;17.60;99.90;;;;;;1922515;73;25178;-88
2023/08/10 10:38:00;;;;;;;0.87;0.70;;;17.40;99.90;;;;;;1924989;73;25247;-89
2023/08/10 10:40:53;;;;;;;1.17;0.60;;;17.30;99.90;;;;;;1918909;72;25224;-88
2023/08/10 10:58:25;;;;;;;0.60;0.60;;;17.70;99.90;;;;;;1937958;72;26710;-87
2023/08/10 11:03:59;;;;;;;2.00;0.60;;;18.20;99.90;;;;;;1956172;71;26956;-87
2023/08/10 11:06:48;;;;;;;0.60;0.60;;;17.90;99.90;;;;;;1943139;73;25300;-87
2023/08/10 11:09:37;;;;;;;2.10;0.50;;;17.80;99.90;;;;;;1941010;73;25304;-87
2023/08/10 11:15:13;;;;;;;2.30;0.57;;;17.80;99.90;;;;;;1932644;72;26961;-87
2023/08/10 11:18:03;;;;;;;0.40;0.40;;;17.80;99.90;;;;;;1887572;75;25660;-87
2023/08/10 11:20:52;;;;;;;0.70;0.70;;;18.00;99.90;;;;;;1904420;75;25216;-89
2023/08/10 11:23:43;;;;;;;1.43;0.73;;;18.50;99.90;;;;;;1888957;75;25220;-89
2023/08/10 11:26:32;;;;;;;0.53;0.43;;;19.00;99.90;;;;;;1891041;75;25234;-89
2023/08/10 11:29:21;;;;;;;0.60;0.60;;;19.00;99.90;;;;;;1893971;75;25231;-90
2023/08/10 11:32:10;;;;;;;0.70;0.70;;;19.50;99.90;;;;;;1897017;75;25266;-89
2023/08/10 11:35:04;;;;;;;0.50;0.50;;;19.70;99.90;;;;;;1898247;75;25368;-89
2023/08/10 11:37:54;;;;;;;0.40;0.40;;;19.60;99.90;;;;;;1894110;75;25226;-90
2023/08/10 11:40:48;;;;;;;1.07;0.70;;;19.70;99.90;;;;;;1887767;74;25648;-87
2023/08/10 11:43:40;;;;;;;0.60;0.60;;;19.80;99.90;;;;;;1863115;76;25190;-87
2023/08/10 11:46:29;;;;;;;6.37;0.60;;;19.10;99.90;;;;;;1871703;76;25168;-90
2023/08/10 11:49:20;;;;;;;3.60;0.80;;;19.10;99.90;;;;;;1858658;76;25809;-90
2023/08/10 11:54:55;;;;;;;3.37;0.90;;;19.90;99.90;;;;;;1931287;72;27528;-87
2023/08/10 11:57:48;;;;;;;2.37;0.80;;;20.20;99.90;;;;;;1877445;75;26038;-88
2023/08/10 12:00:40;;;;;;;0.80;0.73;;;20.30;99.90;;;;;;1837265;77;25217;-88
2023/08/10 12:03:30;;;;;;;3.87;1.17;;;19.80;99.90;;;;;;1832611;78;25262;-87
2023/08/10 12:06:42;;;;;;;1.93;0.80;;;19.20;99.90;;;;;;1843303;77;25328;-88
2023/08/10 12:13:20;;;;;;;0.87;0.70;;;17.80;99.90;;;;;;1995065;71;28359;-88
2023/08/10 12:16:12;;;;;;;0.73;0.73;;;17.50;99.90;;;;;;1955075;72;25251;-88
2023/08/10 12:21:57;;;;;;;0.70;0.70;;;17.90;99.90;;;;;;1932753;72;27089;-87
2023/08/10 12:38:44;;;;;;;4.87;1.30;;;18.60;99.90;;;;;;1909758;74;26977;-87
2023/08/10 12:44:18;;;;;;;2.27;1.00;;;19.40;99.90;;;;;;1904692;74;27474;-88
2023/08/10 12:47:08;;;;;;;1.57;0.80;;;19.00;99.90;;;;;;1859465;76;25257;-88
2023/08/10 12:49:57;;;;;;;1.03;0.60;;;19.00;99.90;;;;;;1859265;76;25260;-88
2023/08/10 12:52:48;;;;;;;1.07;1.00;;;19.40;99.90;;;;;;1824402;78;25340;-87
2023/08/10 12:55:37;;;;;;;2.87;0.70;;;19.60;99.90;;;;;;1814419;78;25775;-88
2023/08/10 12:58:26;;;;;;;2.87;0.90;;;19.60;99.90;;;;;;1820598;78;25204;-88
2023/08/10 13:14:42;;;;;;;1.37;0.90;;;19.90;99.90;;;;;;1918172;74;28283;-86
2023/08/10 13:30:41;;;;;;;1.37;1.20;;;18.00;99.90;;;;;;1864038;75;27438;-89
2023/08/10 13:58:37;;;;;;;2.13;0.90;;;18.40;99.90;;;;;;2019857;69;29996;-88
2023/08/10 14:02:08;;;;;;;0.97;0.50;;;18.60;99.90;;;;;;1993569;70;25195;-88
2023/08/10 14:05:42;;;;;;;0.60;0.60;;;18.40;99.90;;;;;;1991940;71;25190;-88
2023/08/10 14:12:30;;;;;;;0.60;0.60;;;18.60;99.90;;;;;;2008375;71;25265;-88
2023/08/10 14:15:57;;;;;;;0.70;0.70;;;18.80;99.90;;;;;;1996181;70;25202;-88
2023/08/10 14:39:29;;;;;;;4.47;1.33;;;18.10;99.90;;;;;;1923234;72;27056;-88
2023/08/10 14:43:07;;;;;;;1.23;0.90;;;17.40;99.90;;;;;;1853486;76;25280;-88
2023/08/10 15:01:56;;;;;;;0.60;0.60;;;17.30;99.90;;;;;;1803151;78;25247;-88
2023/08/10 15:05:13;;;;;;;1.03;0.50;;;17.60;99.90;;;;;;1785061;78;25279;-88
2023/08/10 15:08:24;;;;;;;0.60;0.60;;;17.60;99.90;;;;;;1781384;79;25657;-88
2023/08/10 15:11:49;;;;;;;0.47;0.47;;;17.70;99.90;;;;;;1800289;79;25216;-88
2023/08/10 15:15:05;;;;;;;0.70;0.57;;;17.90;99.90;;;;;;1839096;76;25240;-88
2023/08/10 15:17:55;;;;;;;1.80;0.30;;;18.10;99.90;;;;;;1801768;78;25235;-88
2023/08/10 15:20:57;;;;;;;0.40;0.40;;;18.20;99.90;;;;;;1793796;78;25352;-88
2023/08/10 15:24:24;;;;;;;0.30;0.30;;;18.30;99.90;;;;;;1807271;79;25696;-88
2023/08/10 15:28:06;;;;;;;0.37;0.37;;;18.30;99.90;;;;;;1811860;77;25212;-88
2023/08/10 15:44:34;;;;;;;1.80;0.60;;;18.70;99.90;;;;;;1871530;75;28161;-88
2023/08/10 15:51:21;;;;;;;1.40;1.20;;;18.70;99.90;;;;;;1937806;72;31646;-88
2023/08/10 15:54:26;;;;;;;5.80;2.80;;;18.60;99.90;;;;;;1909246;73;25788;-88
2023/08/10 16:12:40;;;;;;;6.13;4.37;;;18.60;99.90;;;;;;1932577;73;25252;-88
2023/08/10 16:15:37;;;;;;;2.93;2.63;;;18.70;99.90;;;;;;1907509;73;25824;-88
2023/08/10 16:22:40;;;;;;;3.07;2.50;;;18.80;99.90;;;;;;1933203;73;25192;-89
2023/08/10 16:25:55;;;;;;;2.40;1.83;;;18.60;99.90;;;;;;1869284;75;25214;-88
2023/08/10 16:36:12;;;;;;;11.70;5.33;;;18.70;99.90;;;;;;1934362;73;25293;-89
2023/08/10 16:43:23;;;;;;;8.97;4.00;;;18.20;99.90;;;;;;1935372;72;25239;-89
2023/08/10 16:46:55;;;;;;;6.87;3.20;;;18.10;99.90;;;;;;1882386;75;25242;-88
2023/08/10 16:50:21;;;;;;;6.93;3.40;;;18.30;99.90;;;;;;1902851;73;25277;-89
2023/08/10 16:53:34;;;;;;;6.33;3.07;;;18.30;99.90;;;;;;1901234;74;25501;-89
2023/08/10 16:56:27;;;;;;;4.57;2.77;;;18.30;99.90;;;;;;1907856;75;25296;-88
2023/08/10 17:02:32;;;;;;;2.47;2.03;;;18.00;99.90;;;;;;1948163;72;29360;-88
2023/08/10 17:05:47;;;;;;;3.63;1.80;;;17.90;99.90;;;;;;1907833;73;25968;-88
2023/08/10 17:08:49;;;;;;;1.37;1.27;;;17.90;99.90;;;;;;1920599;73;25189;-88
2023/08/10 17:11:53;;;;;;;1.33;1.23;;;18.10;99.90;;;;;;1917727;73;25174;-88
2023/08/10 17:14:50;;;;;;;2.03;1.37;;;18.10;99.90;;;;;;1919884;73;26284;-88
2023/08/10 17:17:42;;;;;;;1.20;1.10;;;17.90;99.90;;;;;;1891338;73;25152;-88
2023/08/10 17:28:16;;;;;;;1.50;1.20;;;17.40;99.90;;;;;;1914555;73;25297;-88
2023/08/10 17:35:28;;;;;;;1.80;1.37;;;17.20;99.90;;;;;;1915698;73;25175;-88
2023/08/10 17:38:34;;;;;;;1.20;1.10;;;17.10;99.90;;;;;;1920933;73;25149;-88
2023/08/10 18:02:21;;;;;;;5.00;0.70;;;16.50;99.90;;;;;;1941756;72;27052;-89
2023/08/10 18:16:58;;;;;;;1.20;0.63;;;16.50;99.90;;;;;;1954729;72;25158;-89
2023/08/10 18:23:02;;;;;;;1.07;0.50;;;16.40;99.90;;;;;;1939616;72;27694;-89
2023/08/10 18:48:00;;;;;;;0.70;0.70;;;16.20;99.90;;;;;;1947382;71;28141;-89
2023/08/10 18:51:15;;;;;;;1.63;1.30;;;16.20;99.90;;;;;;1919876;73;25279;-89
2023/08/10 19:01:24;;;;;;;1.03;1.03;;;16.00;99.90;;;;;;1933500;73;25999;-89
2023/08/10 19:04:40;;;;;;;0.80;0.80;;;15.90;99.90;;;;;;1926901;73;25777;-89
2023/08/10 19:07:46;;;;;;;1.00;1.00;;;15.80;99.90;;;;;;1916447;73;26202;-89
2023/08/10 19:10:54;;;;;;;4.13;1.30;;;15.80;99.90;;;;;;1921810;73;26682;-89
2023/08/10 19:18:00;;;;;;;3.63;2.10;;;15.70;99.90;;;;;;1929187;73;25234;-89
2023/08/10 19:21:24;;;;;;;6.13;2.70;;;15.60;99.90;;;;;;1923404;73;25598;-89
2023/08/10 19:24:52;;;;;;;4.20;2.53;;;15.50;99.90;;;;;;1933572;73;25243;-89
2023/08/10 19:32:07;;;;;;;8.07;4.30;;;15.30;99.90;;;;;;1919170;73;25223;-89
2023/08/10 19:52:09;;;;;;;6.57;4.13;;;15.20;99.90;;;;;;2043332;69;25208;-89
2023/08/10 19:55:04;;;;;;;6.87;4.40;;;15.20;99.90;;;;;;2033013;69;25115;-89
2023/08/10 19:58:31;;;;;;;7.37;4.40;;;15.20;99.90;;;;;;2025206;69;25222;-89
2023/08/10 20:01:45;;;;;;;5.90;4.13;;;15.10;99.90;;;;;;2044738;69;25177;-89
2023/08/10 20:04:58;;;;;;;8.07;4.50;;;15.10;99.90;;;;;;2031323;69;25191;-89
2023/08/10 20:07:59;;;;;;;6.87;4.17;;;15.20;99.90;;;;;;2028485;70;25163;-89
2023/08/10 20:11:30;;;;;;;7.63;4.77;;;15.20;99.90;;;;;;2029943;70;25210;-89
2023/08/10 20:14:45;;;;;;;6.47;4.50;;;15.20;99.90;;;;;;2058602;69;25150;-89
2023/08/10 20:21:43;;;;;;;5.70;3.90;;;15.30;99.90;;;;;;2035070;69;25608;-89
2023/08/10 20:28:28;;;;;;;6.77;4.20;;;15.30;99.90;;;;;;2050120;69;25198;-89
2023/08/10 20:31:38;;;;;;;6.43;4.20;;;15.30;99.90;;;;;;2049266;69;26256;-89
2023/08/10 20:35:04;;;;;;;4.20;1.77;;;15.20;99.90;;;;;;2051734;69;25672;-88
2023/08/10 20:41:19;;;;;;;3.37;1.10;;;15.20;99.90;;;;;;2029605;70;25344;-88
2023/08/10 20:44:50;;;;;;;1.60;1.33;;;15.10;99.90;;;;;;2029935;70;25226;-89
2023/08/10 20:50:29;;;;;;;4.70;2.27;;;15.10;99.90;;;;;;1941565;72;27195;-89
2023/08/10 20:56:18;;;;;;;4.53;2.43;;;15.00;99.90;;;;;;1951320;72;27094;-89
2023/08/10 20:59:34;;;;;;;5.63;3.17;;;15.00;99.90;;;;;;1913876;75;25785;-89
2023/08/10 21:05:26;;;;;;;7.60;2.37;;;14.90;99.90;;;;;;1941766;72;26957;-89
2023/08/10 21:11:34;;;;;;;10.80;2.47;;;14.80;99.90;;;;;;1943459;72;27687;-89
2023/08/10 21:21:03;;;;;;;10.93;5.00;;;14.70;99.90;;;;;;1944678;73;25500;-89
2023/08/10 21:23:59;;;;;;;24.83;9.87;;;14.70;99.90;;;;;;1924727;73;25199;-89
2023/08/10 21:29:41;;;;;;;15.53;7.63;;;14.60;99.90;;;;;;1948136;72;28807;-89
2023/08/10 21:38:46;;;;;;;13.80;8.40;;;14.60;99.90;;;;;;1929792;72;25269;-89
2023/08/10 21:44:42;;;;;;;15.43;7.80;;;14.40;99.90;;;;;;1952747;71;27046;-89
2023/08/10 21:47:49;;;;;;;9.13;5.57;;;14.50;99.90;;;;;;1968900;72;25288;-88
2023/08/10 21:53:36;;;;;;;12.07;3.97;;;14.20;99.90;;;;;;1947579;72;27544;-89
2023/08/10 21:56:27;;;;;;;8.90;5.97;;;14.20;99.90;;;;;;1920494;73;25619;-89
2023/08/10 22:19:02;;;;;;;5.50;3.13;;;13.70;99.90;;;;;;1950972;72;26901;-89
2023/08/10 22:21:59;;;;;;;5.93;3.60;;;13.70;99.90;;;;;;1913999;73;25821;-89
2023/08/10 22:24:52;;;;;;;9.63;4.50;;;13.70;99.90;;;;;;1929236;73;25248;-89
2023/08/10 22:28:00;;;;;;;13.57;5.50;;;13.70;99.90;;;;;;1916249;73;25286;-89
2023/08/10 22:30:53;;;;;;;10.40;4.40;;;13.60;99.90;;;;;;1922378;73;25729;-89
2023/08/10 22:33:46;;;;;;;12.10;3.60;;;13.60;99.90;;;;;;1925506;73;25248;-89
2023/08/10 22:40:11;;;;;;;8.90;3.23;;;13.60;99.90;;;;;;1944080;72;26318;-89
2023/08/10 22:43:03;;;;;;;8.20;4.10;;;13.70;99.90;;;;;;1893035;75;25260;-89
2023/08/10 22:46:19;;;;;;;8.40;3.77;;;13.60;99.90;;;;;;1866116;75;25193;-89
2023/08/10 22:52:35;;;;;;;11.93;5.00;;;13.60;99.90;;;;;;1833159;76;25358;-89
2023/08/10 22:55:49;;;;;;;16.70;7.53;;;13.60;99.90;;;;;;1826810;76;25554;-89
2023/08/10 22:58:44;;;;;;;22.93;9.43;;;13.70;99.90;;;;;;1838723;77;25221;-89
2023/08/10 23:01:38;;;;;;;22.47;10.90;;;13.70;99.90;;;;;;1808817;77;25236;-89
2023/08/10 23:08:32;;;;;;;26.00;10.47;;;13.60;99.90;;;;;;1980754;71;27607;-89
2023/08/10 23:11:22;;;;;;;18.27;9.27;;;13.70;99.90;;;;;;1990162;70;25166;-89
2023/08/10 23:14:21;;;;;;;17.17;7.70;;;13.70;99.90;;;;;;2020875;70;25235;-89
2023/08/10 23:17:11;;;;;;;18.57;6.43;;;13.60;99.90;;;;;;2004318;70;25255;-89
2023/08/10 23:33:32;;;;;;;8.20;3.93;;;13.60;99.90;;;;;;1897164;74;28251;-88
2023/08/10 23:37:03;;;;;;;7.40;5.07;;;13.50;99.90;;;;;;1845257;76;25172;-88
2023/08/10 23:40:08;;;;;;;13.43;6.40;;;13.50;99.90;;;;;;1854726;76;26050;-89
2023/08/10 23:46:25;;;;;;;12.93;6.17;;;13.50;99.90;;;;;;1962885;72;27117;-88
2023/08/10 23:49:15;;;;;;;19.03;7.03;;;13.40;99.90;;;;;;1926262;73;25253;-88
2023/08/10 23:52:18;;;;;;;16.80;6.40;;;13.30;99.90;;;;;;1927022;73;25257;-88
2023/08/10 23:55:12;;;;;;;15.40;6.57;;;13.30;99.90;;;;;;1921901;73;25265;-88
2023/08/10 23:58:04;;;;;;;12.40;5.67;;;13.20;99.90;;;;;;1931349;73;25240;-88
